TimeCST,TemperatureF,Dew PointF,Humidity,Sea Level PressureIn,VisibilityMPH,Wind Direction,Wind SpeedMPH,Gust SpeedMPH,PrecipitationIn,Events,Conditions,WindDirDegrees,DateUTC
12:15 AM,28.9,20.3,70,30.02,10.0,WSW,8.1,-,N/A,,Clear,250,2013-12-28 06:15:00
12:35 AM,30.2,20.8,68,30.02,10.0,WSW,8.1,-,N/A,,Clear,240,2013-12-28 06:35:00
12:55 AM,30.6,20.8,67,30.01,10.0,WSW,10.4,-,N/A,,Clear,250,2013-12-28 06:55:00
1:15 AM,29.3,20.8,71,29.99,10.0,West,6.9,-,N/A,,Clear,260,2013-12-28 07:15:00
1:35 AM,30.0,20.7,68,29.98,10.0,West,9.2,-,N/A,,Clear,270,2013-12-28 07:35:00
1:55 AM,31.6,21.0,65,29.97,10.0,West,10.4,-,N/A,,Clear,270,2013-12-28 07:55:00
2:15 AM,29.7,20.3,68,29.96,10.0,West,10.4,-,N/A,,Clear,270,2013-12-28 08:15:00
2:35 AM,30.4,20.3,66,29.95,10.0,West,10.4,-,N/A,,Clear,260,2013-12-28 08:35:00
2:55 AM,30.0,20.3,67,29.94,10.0,West,9.2,-,N/A,,Clear,270,2013-12-28 08:55:00
3:15 AM,27.5,19.8,73,29.94,10.0,WSW,6.9,-,N/A,,Clear,240,2013-12-28 09:15:00
3:35 AM,27.3,19.9,74,29.92,10.0,WSW,10.4,-,N/A,,Clear,240,2013-12-28 09:35:00
3:55 AM,29.8,20.5,68,29.92,10.0,West,10.4,-,N/A,,Clear,270,2013-12-28 09:55:00
4:15 AM,28.2,19.9,71,29.92,10.0,West,9.2,-,N/A,,Clear,270,2013-12-28 10:15:00
4:35 AM,29.1,20.3,70,29.92,10.0,West,8.1,-,N/A,,Clear,260,2013-12-28 10:35:00
5:00 AM,27.7,20.1,73,29.90,10.0,WSW,10.4,-,N/A,,Clear,240,2013-12-28 11:00:00
5:15 AM,26.4,19.4,75,29.90,10.0,West,5.8,-,N/A,,Clear,260,2013-12-28 11:15:00
5:35 AM,27.9,20.3,73,29.89,10.0,West,9.2,-,N/A,,Clear,260,2013-12-28 11:35:00
5:55 AM,29.8,21.0,70,29.88,10.0,West,12.7,-,N/A,,Clear,260,2013-12-28 11:55:00
6:15 AM,33.6,21.6,61,29.87,10.0,West,11.5,-,N/A,,Clear,260,2013-12-28 12:15:00
6:35 AM,34.3,21.7,60,29.87,10.0,West,12.7,-,N/A,,Clear,260,2013-12-28 12:35:00
6:55 AM,35.6,21.6,57,29.87,10.0,WSW,11.5,-,N/A,,Clear,250,2013-12-28 12:55:00
7:15 AM,36.0,21.2,55,29.86,10.0,West,13.8,-,N/A,,Clear,270,2013-12-28 13:15:00
7:35 AM,39.0,21.7,50,29.86,10.0,West,16.1,-,N/A,,Clear,270,2013-12-28 13:35:00
7:55 AM,41.4,21.2,45,29.86,10.0,West,13.8,-,N/A,,Clear,260,2013-12-28 13:55:00
8:15 AM,39.9,21.0,47,29.85,10.0,WSW,11.5,-,N/A,,Clear,250,2013-12-28 14:15:00
8:35 AM,38.1,21.0,50,29.85,10.0,WSW,10.4,-,N/A,,Clear,250,2013-12-28 14:35:00
8:55 AM,39.7,21.2,48,29.86,10.0,West,11.5,-,N/A,,Clear,280,2013-12-28 14:55:00
9:15 AM,40.8,21.4,46,29.86,10.0,West,9.2,-,N/A,,Clear,280,2013-12-28 15:15:00
9:35 AM,40.1,22.8,50,29.86,10.0,WNW,8.1,-,N/A,,Clear,290,2013-12-28 15:35:00
9:55 AM,45.5,22.1,40,29.86,10.0,West,12.7,-,N/A,,Clear,280,2013-12-28 15:55:00
10:15 AM,46.9,21.2,36,29.87,10.0,West,15.0,-,N/A,,Clear,280,2013-12-28 16:15:00
10:35 AM,47.3,21.4,36,29.87,10.0,WNW,15.0,-,N/A,,Clear,290,2013-12-28 16:35:00
10:55 AM,48.9,21.4,34,29.88,10.0,WNW,17.3,-,N/A,,Clear,300,2013-12-28 16:55:00
11:15 AM,50.0,20.1,31,29.89,10.0,WNW,17.3,24.2,N/A,,Clear,300,2013-12-28 17:15:00
11:35 AM,52.3,16.9,25,29.88,10.0,NW,23.0,34.5,N/A,,Clear,310,2013-12-28 17:35:00
11:55 AM,52.0,15.3,23,29.88,10.0,NW,21.9,29.9,N/A,,Clear,310,2013-12-28 17:55:00
12:15 PM,52.7,13.5,21,29.88,10.0,NW,26.5,33.4,N/A,,Clear,320,2013-12-28 18:15:00
12:35 PM,52.3,13.5,21,29.89,10.0,NNW,28.8,35.7,N/A,,Clear,330,2013-12-28 18:35:00
12:55 PM,51.6,13.8,22,29.89,10.0,NNW,28.8,35.7,N/A,,Clear,340,2013-12-28 18:55:00
1:15 PM,51.3,15.1,24,29.89,10.0,NNW,25.3,34.5,N/A,,Clear,340,2013-12-28 19:15:00
1:35 PM,51.3,15.4,24,29.89,10.0,North,24.2,33.4,N/A,,Clear,10,2013-12-28 19:35:00
1:55 PM,50.9,16.2,25,29.90,10.0,NNE,23.0,-,N/A,,Clear,20,2013-12-28 19:55:00
2:15 PM,49.5,17.2,28,29.90,10.0,NNE,24.2,27.6,N/A,,Clear,20,2013-12-28 20:15:00
2:35 PM,47.7,19.8,33,29.91,10.0,North,28.8,35.7,N/A,,Clear,350,2013-12-28 20:35:00
2:55 PM,45.3,21.2,38,29.91,10.0,North,28.8,35.7,N/A,,Clear,350,2013-12-28 20:55:00
3:15 PM,43.7,22.3,43,29.93,10.0,North,29.9,35.7,N/A,,Clear,360,2013-12-28 21:15:00
3:35 PM,42.1,23.0,47,29.94,10.0,North,26.5,35.7,N/A,,Clear,350,2013-12-28 21:35:00
3:55 PM,40.1,23.0,51,29.96,10.0,North,29.9,36.8,N/A,,Clear,350,2013-12-28 21:55:00
4:15 PM,37.8,23.0,55,29.98,10.0,North,29.9,35.7,N/A,,Clear,360,2013-12-28 22:15:00
4:35 PM,36.3,23.0,59,29.99,10.0,North,26.5,34.5,N/A,,Clear,360,2013-12-28 22:35:00
4:55 PM,34.9,23.0,62,30.00,10.0,North,26.5,32.2,N/A,,Clear,360,2013-12-28 22:55:00
5:15 PM,33.3,22.6,65,30.00,10.0,North,23.0,29.9,N/A,,Clear,350,2013-12-28 23:15:00
5:35 PM,32.2,20.1,61,30.01,10.0,North,24.2,32.2,N/A,,Clear,360,2013-12-28 23:35:00
5:55 PM,31.6,19.0,60,30.02,10.0,North,23.0,29.9,N/A,,Clear,10,2013-12-28 23:55:00
6:15 PM,30.2,19.4,64,30.03,10.0,North,23.0,28.8,N/A,,Clear,10,2013-12-29 00:15:00
6:35 PM,29.3,18.5,64,30.04,10.0,North,25.3,33.4,N/A,,Clear,360,2013-12-29 00:35:00
6:55 PM,28.2,18.5,67,30.05,10.0,North,28.8,34.5,N/A,,Clear,360,2013-12-29 00:55:00
7:15 PM,27.0,16.7,65,30.06,10.0,North,25.3,38.0,N/A,,Scattered Clouds,350,2013-12-29 01:15:00
7:35 PM,26.4,14.4,60,30.08,10.0,NNW,19.6,34.5,N/A,,Mostly Cloudy,340,2013-12-29 01:35:00
7:55 PM,25.7,14.7,63,30.10,10.0,NNW,20.7,28.8,N/A,,Overcast,340,2013-12-29 01:55:00
8:15 PM,24.4,12.2,60,30.10,10.0,NNW,20.7,28.8,N/A,,Overcast,340,2013-12-29 02:15:00
8:35 PM,23.7,11.8,61,30.12,10.0,NNW,20.7,26.5,N/A,,Overcast,330,2013-12-29 02:35:00
8:55 PM,22.6,11.1,61,30.12,10.0,North,24.2,32.2,N/A,,Overcast,350,2013-12-29 02:55:00
9:15 PM,21.4,11.3,65,30.13,10.0,North,24.2,29.9,N/A,,Overcast,350,2013-12-29 03:15:00
9:35 PM,20.8,11.1,66,30.13,10.0,NNW,24.2,29.9,N/A,,Overcast,340,2013-12-29 03:35:00
9:55 PM,20.3,9.5,63,30.14,10.0,NNW,24.2,32.2,N/A,,Overcast,340,2013-12-29 03:55:00
10:15 PM,19.9,9.5,64,30.15,10.0,NNW,23.0,-,N/A,,Overcast,340,2013-12-29 04:15:00
10:35 PM,19.0,9.5,66,30.15,10.0,North,23.0,26.5,N/A,,Overcast,350,2013-12-29 04:35:00
10:55 PM,17.6,8.6,68,30.15,10.0,North,23.0,-,N/A,,Overcast,350,2013-12-29 04:55:00
11:15 PM,17.2,8.2,68,30.16,10.0,NNW,26.5,31.1,N/A,,Overcast,340,2013-12-29 05:15:00
11:35 PM,16.7,8.4,70,30.17,10.0,North,24.2,27.6,N/A,,Overcast,350,2013-12-29 05:35:00
11:55 PM,16.3,7.7,69,30.17,10.0,NNW,29.9,35.7,N/A,,Overcast,340,2013-12-29 05:55:00